createdAt,value
2017-12-13T00:00:10.283Z,22.29
2017-12-13T00:00:42.394Z,22.26
2017-12-13T00:01:14.426Z,22.24
2017-12-13T00:01:46.431Z,22.27
2017-12-13T00:02:18.511Z,22.34
2017-12-13T00:02:50.508Z,22.23
2017-12-13T00:03:22.455Z,22.3
2017-12-13T00:03:54.458Z,22.27
2017-12-13T00:04:26.414Z,22.24
2017-12-13T00:04:58.475Z,22.29
2017-12-13T00:05:30.460Z,22.23
2017-12-13T00:06:02.491Z,22.29
2017-12-13T00:06:34.465Z,22.34
2017-12-13T00:07:07.339Z,22.31
2017-12-13T00:07:39.375Z,22.34
2017-12-13T00:08:11.401Z,22.34
2017-12-13T00:08:43.404Z,22.33
2017-12-13T00:09:15.450Z,22.31
2017-12-13T00:09:47.430Z,22.33
2017-12-13T00:10:19.532Z,22.34
2017-12-13T00:10:51.559Z,22.39
2017-12-13T00:11:23.621Z,22.34
2017-12-13T00:11:55.614Z,22.36
2017-12-13T00:12:27.642Z,22.33
2017-12-13T00:12:59.688Z,22.34
2017-12-13T00:13:31.698Z,22.36
2017-12-13T00:14:03.711Z,22.34
2017-12-13T00:14:35.880Z,22.36
2017-12-13T00:15:07.850Z,22.38
2017-12-13T00:15:44.139Z,22.34
2017-12-13T00:16:16.197Z,22.39
2017-12-13T00:16:48.202Z,22.41
2017-12-13T00:17:20.234Z,22.39
2017-12-13T00:17:52.249Z,22.38
2017-12-13T00:18:24.214Z,22.34
2017-12-13T00:18:56.288Z,22.34
2017-12-13T00:19:28.380Z,22.34
2017-12-13T00:20:00.368Z,22.34
2017-12-13T00:20:32.356Z,22.38
2017-12-13T00:21:04.368Z,22.31
2017-12-13T00:21:36.364Z,22.38
2017-12-13T00:22:08.390Z,22.34
2017-12-13T00:22:40.388Z,22.39
2017-12-13T00:23:12.361Z,22.33
2017-12-13T00:23:44.382Z,22.34
2017-12-13T00:24:16.319Z,22.38
2017-12-13T00:24:48.347Z,22.36
2017-12-13T00:25:20.332Z,22.34
2017-12-13T00:25:52.313Z,22.38
2017-12-13T00:26:24.349Z,22.38
2017-12-13T00:26:56.350Z,22.36
2017-12-13T00:27:28.352Z,22.36
2017-12-13T00:28:00.498Z,22.33
2017-12-13T00:28:32.475Z,22.34
2017-12-13T00:29:04.464Z,22.34
2017-12-13T00:29:36.428Z,22.34
2017-12-13T00:30:08.451Z,22.39
2017-12-13T00:30:40.492Z,22.34
2017-12-13T00:31:13.183Z,22.34
2017-12-13T00:31:45.266Z,22.33
2017-12-13T00:32:17.287Z,22.34
2017-12-13T00:32:49.271Z,22.38
2017-12-13T00:33:21.290Z,22.31
2017-12-13T00:33:53.298Z,22.34
2017-12-13T00:34:25.293Z,22.38
2017-12-13T00:34:57.328Z,22.34
2017-12-13T00:35:29.343Z,22.31
2017-12-13T00:36:01.471Z,22.34
2017-12-13T00:36:33.492Z,22.36
2017-12-13T00:37:05.464Z,22.34
2017-12-13T00:37:37.435Z,22.33
2017-12-13T00:38:09.515Z,22.34
2017-12-13T00:38:41.474Z,22.38
2017-12-13T00:39:13.502Z,22.38
2017-12-13T00:39:45.517Z,22.39
2017-12-13T00:40:17.543Z,22.38
2017-12-13T00:40:49.612Z,22.36
2017-12-13T00:41:21.625Z,22.38
2017-12-13T00:41:53.599Z,22.34
2017-12-13T00:42:25.614Z,22.41
2017-12-13T00:42:57.766Z,22.33
2017-12-13T00:43:30.410Z,22.38
2017-12-13T00:44:02.430Z,22.33
2017-12-13T00:44:34.434Z,22.33
2017-12-13T00:45:06.416Z,22.33
2017-12-13T00:45:38.404Z,22.39
2017-12-13T00:46:10.397Z,22.41
2017-12-13T00:46:42.473Z,22.34
2017-12-13T00:47:14.517Z,22.33
2017-12-13T00:47:46.444Z,22.36
2017-12-13T00:48:18.459Z,22.36
2017-12-13T00:48:50.467Z,22.39
2017-12-13T00:49:22.489Z,22.36
2017-12-13T00:49:54.513Z,22.38
2017-12-13T00:50:26.521Z,22.38
2017-12-13T00:50:58.514Z,22.36
2017-12-13T00:51:30.529Z,22.38
2017-12-13T00:52:02.541Z,22.34
2017-12-13T00:52:34.623Z,22.33
2017-12-13T00:53:06.654Z,22.34
2017-12-13T00:53:38.687Z,22.31
2017-12-13T00:54:10.727Z,22.34
2017-12-13T00:54:42.712Z,22.34
2017-12-13T00:55:14.731Z,22.33
2017-12-13T00:55:46.766Z,22.34
2017-12-13T00:56:18.792Z,22.31
2017-12-13T00:56:50.767Z,22.36
2017-12-13T00:57:22.796Z,22.36
2017-12-13T00:57:54.821Z,22.34
2017-12-13T00:58:26.825Z,22.36
2017-12-13T00:58:58.837Z,22.31
2017-12-13T00:59:30.845Z,22.34
2017-12-13T01:00:02.890Z,22.38
2017-12-13T01:00:34.987Z,22.38
2017-12-13T01:01:06.973Z,22.3
2017-12-13T01:01:38.941Z,22.33
2017-12-13T01:02:10.953Z,22.33
2017-12-13T01:02:43.010Z,22.42
2017-12-13T01:03:15.079Z,22.42
2017-12-13T01:03:47.096Z,22.36
2017-12-13T01:04:19.116Z,22.36
2017-12-13T01:04:51.125Z,22.42
2017-12-13T01:05:23.098Z,22.39
2017-12-13T01:05:55.136Z,22.34
2017-12-13T01:06:27.150Z,22.42
2017-12-13T01:06:59.210Z,22.38
2017-12-13T01:07:31.250Z,22.39
2017-12-13T01:08:03.293Z,22.36
2017-12-13T01:08:35.314Z,22.38
2017-12-13T01:09:07.335Z,22.31
2017-12-13T01:09:39.376Z,22.31
2017-12-13T01:10:11.500Z,22.42
2017-12-13T01:10:43.540Z,22.44
2017-12-13T01:11:15.533Z,22.48
2017-12-13T01:11:47.526Z,22.36
2017-12-13T01:12:19.532Z,22.38
2017-12-13T01:12:51.521Z,22.41
2017-12-13T01:13:23.536Z,22.44
2017-12-13T01:13:55.537Z,22.45
2017-12-13T01:14:27.543Z,22.42
2017-12-13T01:14:59.550Z,22.42
2017-12-13T01:15:31.560Z,22.45
2017-12-13T01:16:03.560Z,22.44
2017-12-13T01:16:35.604Z,22.41
2017-12-13T01:17:07.624Z,22.49
2017-12-13T01:17:39.670Z,22.45
2017-12-13T01:18:11.785Z,22.46
2017-12-13T01:18:43.845Z,22.42
2017-12-13T01:19:15.835Z,22.44
2017-12-13T01:19:47.860Z,22.44
2017-12-13T01:20:19.850Z,22.44
2017-12-13T01:20:51.843Z,22.45
2017-12-13T01:21:23.863Z,22.46
2017-12-13T01:21:55.884Z,22.45
2017-12-13T01:22:27.904Z,22.46
2017-12-13T01:22:59.923Z,22.48
2017-12-13T01:23:31.923Z,22.51
2017-12-13T01:24:03.898Z,22.44
2017-12-13T01:24:35.901Z,22.52
2017-12-13T01:25:07.947Z,22.52
2017-12-13T01:25:39.897Z,22.46
2017-12-13T01:26:11.867Z,22.52
2017-12-13T01:26:43.899Z,22.48
2017-12-13T01:27:15.895Z,22.52
2017-12-13T01:27:47.940Z,22.49
2017-12-13T01:28:19.946Z,22.44
2017-12-13T01:28:51.995Z,22.49
2017-12-13T01:29:24.010Z,22.45
2017-12-13T01:29:56.010Z,22.45
2017-12-13T01:30:28.015Z,22.49
2017-12-13T01:31:00.904Z,22.44
2017-12-13T01:31:32.962Z,22.48
2017-12-13T01:32:05.119Z,22.45
2017-12-13T01:32:37.171Z,22.48
2017-12-13T01:33:09.210Z,22.51
2017-12-13T01:33:41.163Z,22.52
2017-12-13T01:34:13.166Z,22.48
2017-12-13T01:34:45.215Z,22.52
2017-12-13T01:35:17.265Z,22.48
2017-12-13T01:35:49.309Z,22.45
2017-12-13T01:36:21.316Z,22.48
2017-12-13T01:36:53.340Z,22.48
2017-12-13T01:37:25.351Z,22.48
2017-12-13T01:37:57.398Z,22.48
2017-12-13T01:38:29.495Z,22.48
2017-12-13T01:39:01.509Z,22.45
2017-12-13T01:39:33.542Z,22.48
2017-12-13T01:40:05.560Z,22.51
2017-12-13T01:40:37.544Z,22.45
2017-12-13T01:41:09.534Z,22.46
2017-12-13T01:41:41.493Z,22.48
2017-12-13T01:42:13.526Z,22.48
2017-12-13T01:42:45.529Z,22.45
2017-12-13T01:43:17.584Z,22.52
2017-12-13T01:43:49.625Z,22.48
2017-12-13T01:44:21.649Z,22.48
2017-12-13T01:44:53.646Z,22.44
2017-12-13T01:45:25.669Z,22.42
2017-12-13T01:45:57.698Z,22.52
2017-12-13T01:46:29.681Z,22.51
2017-12-13T01:47:01.708Z,22.46
2017-12-13T01:47:33.721Z,22.48
2017-12-13T01:48:05.738Z,22.46
2017-12-13T01:48:37.797Z,22.51
2017-12-13T01:49:09.788Z,22.51
2017-12-13T01:49:41.906Z,22.49
2017-12-13T01:50:13.904Z,22.42
2017-12-13T01:50:45.890Z,22.46
2017-12-13T01:51:17.914Z,22.46
2017-12-13T01:51:49.925Z,22.46
2017-12-13T01:52:21.975Z,22.48
2017-12-13T01:52:54.013Z,22.46
2017-12-13T01:53:26.029Z,22.44
2017-12-13T01:53:57.993Z,22.49
2017-12-13T01:54:30.019Z,22.45
2017-12-13T01:55:02.054Z,22.41
2017-12-13T01:55:34.052Z,22.45
2017-12-13T01:56:06.090Z,22.44
2017-12-13T01:56:38.146Z,22.46
2017-12-13T01:57:10.143Z,22.42
2017-12-13T01:57:42.176Z,22.46
2017-12-13T01:58:14.168Z,22.45
2017-12-13T01:58:46.196Z,22.49
2017-12-13T01:59:18.185Z,22.44
2017-12-13T01:59:50.205Z,22.45
2017-12-13T02:00:22.204Z,22.45
2017-12-13T02:00:54.243Z,22.46
2017-12-13T02:01:26.222Z,22.51
2017-12-13T02:01:58.254Z,22.42
2017-12-13T02:02:30.849Z,22.46
2017-12-13T02:03:02.895Z,22.44
2017-12-13T02:03:34.871Z,22.41
2017-12-13T02:04:06.850Z,22.44
2017-12-13T02:04:38.903Z,22.48
2017-12-13T02:05:10.871Z,22.44
2017-12-13T02:05:42.863Z,22.46
2017-12-13T02:06:14.874Z,22.45
2017-12-13T02:06:46.852Z,22.45
2017-12-13T02:07:18.899Z,22.46
2017-12-13T02:07:50.938Z,22.46
2017-12-13T02:08:23.010Z,22.44
2017-12-13T02:08:55.039Z,22.42
2017-12-13T02:09:27.041Z,22.39
2017-12-13T02:09:59.047Z,22.45
2017-12-13T02:10:31.036Z,22.44
2017-12-13T02:11:03.097Z,22.46
2017-12-13T02:11:35.106Z,22.39
2017-12-13T02:12:07.102Z,22.44
2017-12-13T02:12:39.138Z,22.44
2017-12-13T02:13:11.185Z,22.42
2017-12-13T02:13:43.170Z,22.46
2017-12-13T02:14:15.199Z,22.45
2017-12-13T02:14:47.212Z,22.42
2017-12-13T02:15:19.207Z,22.46
2017-12-13T02:15:51.238Z,22.39
2017-12-13T02:16:23.269Z,22.42
2017-12-13T02:16:55.307Z,22.39
2017-12-13T02:17:27.364Z,22.38
2017-12-13T02:17:59.389Z,22.39
2017-12-13T02:18:31.420Z,22.44
2017-12-13T02:19:03.450Z,22.45
2017-12-13T02:19:35.489Z,22.46
2017-12-13T02:20:07.525Z,22.42
2017-12-13T02:20:39.522Z,22.45
2017-12-13T02:21:11.513Z,22.46
2017-12-13T02:21:43.509Z,22.39
2017-12-13T02:22:15.493Z,22.42
2017-12-13T02:22:47.624Z,22.42
2017-12-13T02:23:19.632Z,22.42
2017-12-13T02:23:51.635Z,22.48
2017-12-13T02:24:23.647Z,22.42
2017-12-13T02:24:55.668Z,22.46
2017-12-13T02:25:27.676Z,22.42
2017-12-13T02:25:59.790Z,22.46
2017-12-13T02:26:31.819Z,22.42
2017-12-13T02:27:03.824Z,22.44
2017-12-13T02:27:35.840Z,22.45
2017-12-13T02:28:07.854Z,22.45
2017-12-13T02:28:39.882Z,22.46
2017-12-13T02:29:11.914Z,22.41
2017-12-13T02:29:43.929Z,22.41
2017-12-13T02:30:16.573Z,22.38
2017-12-13T02:30:48.569Z,22.38
2017-12-13T02:31:20.567Z,22.45
2017-12-13T02:31:53.352Z,22.45
2017-12-13T02:32:25.370Z,22.42
2017-12-13T02:32:57.410Z,22.39
2017-12-13T02:33:29.367Z,22.44
2017-12-13T02:34:01.364Z,22.38
2017-12-13T02:34:33.446Z,22.38
2017-12-13T02:35:05.509Z,22.41
2017-12-13T02:35:37.529Z,22.42
2017-12-13T02:36:09.545Z,22.33
2017-12-13T02:36:41.579Z,22.31
2017-12-13T02:37:13.610Z,22.44
2017-12-13T02:37:45.620Z,22.42
2017-12-13T02:38:17.650Z,22.36
2017-12-13T02:38:49.642Z,22.44
2017-12-13T02:39:21.674Z,22.42
2017-12-13T02:39:53.703Z,22.36
2017-12-13T02:40:25.809Z,22.36
2017-12-13T02:40:57.825Z,22.33
2017-12-13T02:41:29.858Z,22.36
2017-12-13T02:42:01.859Z,22.38
2017-12-13T02:42:33.854Z,22.42
2017-12-13T02:43:05.875Z,22.44
2017-12-13T02:43:37.875Z,22.34
2017-12-13T02:44:09.900Z,22.29
2017-12-13T02:44:41.928Z,22.42
2017-12-13T02:45:14.010Z,22.31
2017-12-13T02:45:46.014Z,22.39
2017-12-13T02:46:18.046Z,22.36
2017-12-13T02:46:50.072Z,22.39
2017-12-13T02:47:22.165Z,22.44
2017-12-13T02:47:54.200Z,22.44
2017-12-13T02:48:26.229Z,22.36
2017-12-13T02:48:58.217Z,22.39
2017-12-13T02:49:30.228Z,22.39
2017-12-13T02:50:02.240Z,22.34
2017-12-13T02:50:34.330Z,22.38
2017-12-13T02:51:07.066Z,22.38
2017-12-13T02:51:39.079Z,22.36
2017-12-13T02:52:11.092Z,22.42
2017-12-13T02:52:43.196Z,22.39
2017-12-13T02:53:15.185Z,22.36
2017-12-13T02:53:47.221Z,22.42
2017-12-13T02:54:19.275Z,22.36
2017-12-13T02:54:51.249Z,22.41
2017-12-13T02:55:23.282Z,22.39
2017-12-13T02:55:55.309Z,22.38
2017-12-13T02:56:27.265Z,22.38
2017-12-13T02:56:59.255Z,22.34
2017-12-13T02:57:31.277Z,22.39
2017-12-13T02:58:03.294Z,22.34
2017-12-13T02:58:35.306Z,22.36
2017-12-13T02:59:07.312Z,22.34
2017-12-13T02:59:39.325Z,22.34
2017-12-13T03:00:11.314Z,22.33
2017-12-13T03:00:43.293Z,22.33
2017-12-13T03:01:15.323Z,22.38
2017-12-13T03:01:48.071Z,22.33
2017-12-13T03:02:20.097Z,22.33
2017-12-13T03:02:52.174Z,22.31
2017-12-13T03:03:24.191Z,22.3
2017-12-13T03:03:56.143Z,22.36
2017-12-13T03:04:28.185Z,22.34
2017-12-13T03:05:00.153Z,22.34
2017-12-13T03:05:32.192Z,22.3
2017-12-13T03:06:04.765Z,22.31
2017-12-13T03:06:36.787Z,22.36
2017-12-13T03:07:08.833Z,22.27
2017-12-13T03:07:41.769Z,22.31
2017-12-13T03:08:13.791Z,22.29
2017-12-13T03:08:45.784Z,22.33
2017-12-13T03:09:17.800Z,22.27
2017-12-13T03:09:49.832Z,22.23
2017-12-13T03:10:21.801Z,22.24
2017-12-13T03:10:53.782Z,22.24
2017-12-13T03:11:25.784Z,22.27
2017-12-13T03:11:57.779Z,22.3
2017-12-13T03:12:29.809Z,22.23
2017-12-13T03:13:01.837Z,22.29
2017-12-13T03:13:33.808Z,22.26
2017-12-13T03:14:05.823Z,22.27
2017-12-13T03:14:37.839Z,22.26
2017-12-13T03:15:09.865Z,22.26
2017-12-13T03:15:41.855Z,22.22
2017-12-13T03:16:13.855Z,22.3
2017-12-13T03:16:45.846Z,22.31
2017-12-13T03:17:17.892Z,22.29
2017-12-13T03:17:49.942Z,22.2
2017-12-13T03:18:21.964Z,22.26
2017-12-13T03:18:53.943Z,22.31
2017-12-13T03:19:26.457Z,22.2
2017-12-13T03:19:58.443Z,22.23
2017-12-13T03:20:30.446Z,22.22
2017-12-13T03:21:02.425Z,22.16
2017-12-13T03:21:34.408Z,22.23
2017-12-13T03:22:06.448Z,22.29
2017-12-13T03:22:38.453Z,22.29
2017-12-13T03:23:10.466Z,22.23
2017-12-13T03:23:42.585Z,22.23
2017-12-13T03:24:14.586Z,22.24
2017-12-13T03:24:46.613Z,22.22
2017-12-13T03:25:18.654Z,22.26
2017-12-13T03:25:50.667Z,22.27
2017-12-13T03:26:22.718Z,22.23
2017-12-13T03:26:54.759Z,22.27
2017-12-13T03:27:26.841Z,22.26
2017-12-13T03:27:58.860Z,22.24
2017-12-13T03:28:30.894Z,22.27
2017-12-13T03:29:02.907Z,22.26
2017-12-13T03:29:34.938Z,22.22
2017-12-13T03:30:06.991Z,22.27
2017-12-13T03:30:39.041Z,22.23
2017-12-13T03:31:11.133Z,22.27
2017-12-13T03:31:43.142Z,22.27
2017-12-13T03:32:15.137Z,22.26
2017-12-13T03:32:47.097Z,22.24
2017-12-13T03:33:19.120Z,22.24
2017-12-13T03:33:51.169Z,22.22
2017-12-13T03:34:23.162Z,22.23
2017-12-13T03:34:55.145Z,22.27
2017-12-13T03:35:27.104Z,22.16
2017-12-13T03:35:59.103Z,22.27
2017-12-13T03:36:31.099Z,22.2
2017-12-13T03:37:03.095Z,22.27
2017-12-13T03:37:35.147Z,22.29
2017-12-13T03:38:07.166Z,22.2
2017-12-13T03:38:39.154Z,22.22
2017-12-13T03:39:11.170Z,22.23
2017-12-13T03:39:43.219Z,22.24
2017-12-13T03:40:15.243Z,22.26
2017-12-13T03:40:47.233Z,22.27
2017-12-13T03:41:19.249Z,22.26
2017-12-13T03:41:51.264Z,22.2
2017-12-13T03:42:23.408Z,22.24
2017-12-13T03:42:55.478Z,22.22
2017-12-13T03:43:27.500Z,22.22
2017-12-13T03:43:59.470Z,22.22
2017-12-13T03:44:31.547Z,22.23
2017-12-13T03:45:04.112Z,22.07
2017-12-13T03:45:36.142Z,22.2
2017-12-13T03:46:08.094Z,22.2
2017-12-13T03:46:40.088Z,22.2
2017-12-13T03:47:12.123Z,22.14
2017-12-13T03:47:44.102Z,22.2
2017-12-13T03:48:16.074Z,22.15
2017-12-13T03:48:48.084Z,22.18
2017-12-13T03:49:20.089Z,22.07
2017-12-13T03:49:52.950Z,22.16
2017-12-13T03:50:24.989Z,22.12
2017-12-13T03:50:56.980Z,22.11
2017-12-13T03:51:28.936Z,22.15
2017-12-13T03:52:00.929Z,22.2
2017-12-13T03:52:32.906Z,22.27
2017-12-13T03:53:05.006Z,22.11
2017-12-13T03:53:37.091Z,22.12
2017-12-13T03:54:09.056Z,22.14
2017-12-13T03:54:41.052Z,22.23
2017-12-13T03:55:13.080Z,22.15
2017-12-13T03:55:45.086Z,22.26
2017-12-13T03:56:17.238Z,22.18
2017-12-13T03:56:49.241Z,22.2
2017-12-13T03:57:21.230Z,22.22
2017-12-13T03:57:53.185Z,22.07
2017-12-13T03:58:25.198Z,22.15
2017-12-13T03:58:57.202Z,22.23
2017-12-13T03:59:29.221Z,22.18
2017-12-13T04:00:01.205Z,22.16
2017-12-13T04:00:33.209Z,22.15
2017-12-13T04:01:05.222Z,22.12
2017-12-13T04:01:37.267Z,22.14
2017-12-13T04:02:09.321Z,22.08
2017-12-13T04:02:41.305Z,22.09
2017-12-13T04:03:13.283Z,22.11
2017-12-13T04:03:45.292Z,22.05
2017-12-13T04:04:17.286Z,22.14
2017-12-13T04:04:49.321Z,22.09
2017-12-13T04:05:21.320Z,22.07
2017-12-13T04:05:53.282Z,22.09
2017-12-13T04:06:25.226Z,22.11
2017-12-13T04:06:57.261Z,22.09
2017-12-13T04:07:29.275Z,22.11
2017-12-13T04:08:01.377Z,22.08
2017-12-13T04:08:33.403Z,22.08
2017-12-13T04:09:05.388Z,22.09
2017-12-13T04:09:37.434Z,22.14
2017-12-13T04:10:09.553Z,22.08
2017-12-13T04:10:41.522Z,22.08
2017-12-13T04:11:13.558Z,22.09
2017-12-13T04:11:45.538Z,22.02
2017-12-13T04:12:17.561Z,22.05
2017-12-13T04:12:49.598Z,22.05
2017-12-13T04:13:21.759Z,22.02
2017-12-13T04:13:53.771Z,22.04
2017-12-13T04:14:25.762Z,22
2017-12-13T04:14:57.783Z,22.05
2017-12-13T04:15:30.529Z,21.99
2017-12-13T04:16:02.526Z,22.05
2017-12-13T04:16:34.558Z,22
2017-12-13T04:17:06.567Z,22
2017-12-13T04:17:38.595Z,22
2017-12-13T04:18:10.575Z,21.96
2017-12-13T04:18:42.586Z,21.94
2017-12-13T04:19:14.587Z,22.04
2017-12-13T04:19:46.583Z,21.97
2017-12-13T04:20:18.616Z,21.94
2017-12-13T04:20:50.599Z,22
2017-12-13T04:21:22.639Z,21.97
2017-12-13T04:21:54.628Z,22
2017-12-13T04:22:26.705Z,21.97
2017-12-13T04:22:58.738Z,21.93
2017-12-13T04:23:30.742Z,21.97
2017-12-13T04:24:03.319Z,21.92
2017-12-13T04:24:35.304Z,22
2017-12-13T04:25:07.450Z,21.9
2017-12-13T04:25:39.417Z,21.9
2017-12-13T04:26:11.397Z,21.99
2017-12-13T04:26:43.435Z,22.02
2017-12-13T04:27:15.553Z,21.94
2017-12-13T04:27:47.530Z,21.94
2017-12-13T04:28:19.535Z,21.96
2017-12-13T04:28:51.538Z,21.96
2017-12-13T04:29:23.540Z,21.94
2017-12-13T04:29:55.577Z,21.99
2017-12-13T04:30:27.635Z,22.02
2017-12-13T04:30:59.612Z,22
2017-12-13T04:31:31.684Z,21.97
2017-12-13T04:32:03.691Z,21.97
2017-12-13T04:32:35.696Z,21.99
2017-12-13T04:33:07.674Z,22.02
2017-12-13T04:33:39.677Z,21.92
2017-12-13T04:34:11.711Z,21.92
2017-12-13T04:34:43.752Z,21.86
2017-12-13T04:35:15.840Z,21.96
2017-12-13T04:35:47.844Z,21.93
2017-12-13T04:36:19.843Z,21.96
2017-12-13T04:36:51.850Z,21.9
2017-12-13T04:37:23.871Z,21.94
2017-12-13T04:37:55.912Z,21.97
2017-12-13T04:38:27.988Z,21.96
2017-12-13T04:39:00.019Z,21.92
2017-12-13T04:39:32.028Z,21.93
2017-12-13T04:40:04.005Z,21.94
2017-12-13T04:40:36.031Z,21.89
2017-12-13T04:41:08.033Z,21.89
2017-12-13T04:41:40.051Z,21.93
2017-12-13T04:42:12.065Z,21.92
2017-12-13T04:42:44.053Z,21.85
2017-12-13T04:43:16.042Z,21.89
2017-12-13T04:43:48.056Z,21.92
2017-12-13T04:44:20.074Z,21.92
2017-12-13T04:44:52.110Z,21.83
2017-12-13T04:45:24.114Z,21.89
2017-12-13T04:45:56.191Z,21.85
2017-12-13T04:46:28.200Z,21.85
2017-12-13T04:47:00.182Z,21.83
2017-12-13T04:47:32.191Z,21.82
2017-12-13T04:48:04.215Z,21.93
2017-12-13T04:48:36.196Z,21.85
2017-12-13T04:49:08.205Z,21.85
2017-12-13T04:49:40.242Z,21.83
2017-12-13T04:50:12.325Z,21.83
2017-12-13T04:50:44.352Z,21.83
2017-12-13T04:51:16.345Z,21.74
2017-12-13T04:51:48.325Z,21.76
2017-12-13T04:52:20.345Z,21.74
2017-12-13T04:52:52.378Z,21.74
2017-12-13T04:53:24.371Z,21.74
2017-12-13T04:53:56.494Z,21.74
2017-12-13T04:54:28.621Z,21.76
2017-12-13T04:55:00.630Z,21.74
2017-12-13T04:55:32.642Z,21.7
2017-12-13T04:56:04.678Z,21.73
2017-12-13T04:56:36.775Z,21.8
2017-12-13T04:57:08.796Z,21.76
2017-12-13T04:57:40.812Z,21.71
2017-12-13T04:58:12.834Z,21.76
2017-12-13T04:58:44.858Z,21.71
2017-12-13T04:59:16.890Z,21.68
2017-12-13T04:59:48.872Z,21.71
2017-12-13T05:00:20.910Z,21.73
2017-12-13T05:00:52.975Z,21.71
2017-12-13T05:01:25.830Z,21.73
2017-12-13T05:01:57.859Z,21.71
2017-12-13T05:02:29.844Z,21.71
2017-12-13T05:03:01.843Z,21.71
2017-12-13T05:03:33.827Z,21.73
2017-12-13T05:04:05.836Z,21.68
2017-12-13T05:04:37.900Z,21.8
2017-12-13T05:05:09.927Z,21.74
2017-12-13T05:05:41.964Z,21.73
2017-12-13T05:06:13.994Z,21.76
2017-12-13T05:06:46.070Z,21.76
2017-12-13T05:07:18.070Z,21.73
2017-12-13T05:07:50.077Z,21.74
2017-12-13T05:08:22.072Z,21.7
2017-12-13T05:08:54.098Z,21.66
2017-12-13T05:09:26.137Z,21.71
2017-12-13T05:09:58.183Z,21.68
2017-12-13T05:10:30.202Z,21.73
2017-12-13T05:11:02.218Z,21.66
2017-12-13T05:11:34.223Z,21.71
2017-12-13T05:12:06.252Z,21.78
2017-12-13T05:12:38.234Z,21.74
2017-12-13T05:13:10.250Z,21.71
2017-12-13T05:13:42.215Z,21.7
2017-12-13T05:14:14.197Z,21.76
2017-12-13T05:14:46.216Z,21.76
2017-12-13T05:15:18.248Z,21.71
2017-12-13T05:15:50.290Z,21.78
2017-12-13T05:16:22.306Z,21.8
2017-12-13T05:16:54.379Z,21.74
2017-12-13T05:17:26.389Z,21.8
2017-12-13T05:17:58.394Z,21.76
2017-12-13T05:18:30.460Z,21.77
2017-12-13T05:19:02.444Z,21.76
2017-12-13T05:19:34.487Z,21.83
2017-12-13T05:20:06.454Z,21.77
2017-12-13T05:20:38.458Z,21.76
2017-12-13T05:21:10.463Z,21.83
2017-12-13T05:21:42.472Z,21.8
2017-12-13T05:22:14.509Z,21.83
2017-12-13T05:22:46.513Z,21.83
2017-12-13T05:23:18.486Z,21.77
2017-12-13T05:23:50.521Z,21.85
2017-12-13T05:24:22.546Z,21.82
2017-12-13T05:24:54.545Z,21.82
2017-12-13T05:25:26.636Z,21.8
2017-12-13T05:25:58.614Z,21.82
2017-12-13T05:26:30.585Z,21.8
2017-12-13T05:27:02.611Z,21.8
2017-12-13T05:27:34.586Z,21.82
2017-12-13T05:28:06.602Z,21.85
2017-12-13T05:28:38.593Z,21.82
2017-12-13T05:29:10.632Z,21.82
2017-12-13T05:29:42.663Z,21.8
2017-12-13T05:30:14.689Z,21.89
2017-12-13T05:30:46.689Z,21.83
2017-12-13T05:31:18.725Z,21.8
2017-12-13T05:31:50.689Z,21.82
2017-12-13T05:32:22.695Z,21.9
2017-12-13T05:32:54.707Z,21.92
2017-12-13T05:33:26.682Z,21.77
2017-12-13T05:33:58.692Z,21.86
2017-12-13T05:34:30.823Z,21.8
2017-12-13T05:35:02.777Z,21.82
2017-12-13T05:35:34.790Z,21.83
2017-12-13T05:36:06.793Z,21.93
2017-12-13T05:36:38.788Z,21.82
2017-12-13T05:37:10.791Z,21.82
2017-12-13T05:37:42.766Z,21.83
2017-12-13T05:38:14.775Z,21.78
2017-12-13T05:38:46.766Z,21.78
2017-12-13T05:39:18.775Z,21.8
2017-12-13T05:39:50.805Z,21.82
2017-12-13T05:40:22.945Z,21.78
2017-12-13T05:40:55.100Z,21.77
2017-12-13T05:41:27.118Z,21.83
2017-12-13T05:41:59.152Z,21.82
2017-12-13T05:42:31.173Z,21.76
2017-12-13T05:43:03.176Z,21.74
2017-12-13T05:43:35.180Z,21.82
2017-12-13T05:44:07.279Z,21.78
2017-12-13T05:44:39.288Z,21.67
2017-12-13T05:45:11.276Z,21.68
2017-12-13T05:45:43.293Z,21.73
2017-12-13T05:46:15.297Z,21.73
2017-12-13T05:46:47.345Z,21.76
2017-12-13T05:47:19.327Z,21.76
2017-12-13T05:47:51.321Z,21.73
2017-12-13T05:48:23.363Z,21.78
2017-12-13T05:48:55.345Z,21.73
2017-12-13T05:49:27.383Z,21.73
2017-12-13T05:49:59.432Z,21.7
2017-12-13T05:50:31.435Z,21.73
2017-12-13T05:51:03.500Z,21.73
2017-12-13T05:51:36.171Z,21.71
2017-12-13T05:52:08.158Z,21.68
2017-12-13T05:52:40.144Z,21.73
2017-12-13T05:53:12.165Z,21.68
2017-12-13T05:53:44.198Z,21.64
2017-12-13T05:54:16.286Z,21.66
2017-12-13T05:54:48.969Z,21.62
2017-12-13T05:55:20.993Z,21.66
2017-12-13T05:55:52.997Z,21.64
2017-12-13T05:56:24.984Z,21.68
2017-12-13T05:56:56.969Z,21.62
2017-12-13T05:57:28.975Z,21.67
2017-12-13T05:58:01.108Z,21.67
2017-12-13T05:58:33.098Z,21.66
2017-12-13T05:59:05.093Z,21.66
2017-12-13T05:59:37.081Z,21.62
2017-12-13T06:00:09.130Z,21.66
2017-12-13T06:00:41.144Z,21.73
2017-12-13T06:01:13.263Z,21.64
2017-12-13T06:01:45.240Z,21.64
2017-12-13T06:02:17.272Z,21.68
2017-12-13T06:02:49.356Z,21.59
2017-12-13T06:03:21.330Z,21.59
2017-12-13T06:03:53.332Z,21.64
2017-12-13T06:04:25.355Z,21.66
2017-12-13T06:04:57.373Z,21.7
2017-12-13T06:05:29.377Z,21.7
2017-12-13T06:06:01.402Z,21.74
2017-12-13T06:06:33.396Z,21.74
2017-12-13T06:07:06.280Z,21.61
2017-12-13T06:07:38.310Z,21.68
2017-12-13T06:08:10.311Z,21.8
2017-12-13T06:08:42.318Z,21.71
2017-12-13T06:09:14.379Z,21.74
2017-12-13T06:09:46.379Z,21.71
2017-12-13T06:10:19.083Z,21.77
2017-12-13T06:10:51.130Z,21.74
2017-12-13T06:11:23.140Z,21.76
2017-12-13T06:11:55.140Z,21.73
2017-12-13T06:12:27.127Z,21.74
2017-12-13T06:12:59.111Z,21.76
2017-12-13T06:13:31.100Z,21.78
2017-12-13T06:14:03.137Z,21.76
2017-12-13T06:14:35.150Z,21.77
2017-12-13T06:15:07.200Z,21.74
2017-12-13T06:15:39.185Z,21.76
2017-12-13T06:16:11.204Z,21.74
2017-12-13T06:16:43.228Z,21.74
2017-12-13T06:17:15.196Z,21.73
2017-12-13T06:17:47.480Z,21.71
2017-12-13T06:18:19.510Z,21.67
2017-12-13T06:18:51.607Z,21.66
2017-12-13T06:19:23.574Z,21.68
2017-12-13T06:19:56.281Z,21.62
2017-12-13T06:20:28.402Z,21.66
2017-12-13T06:21:00.401Z,21.66
2017-12-13T06:21:32.410Z,21.76
2017-12-13T06:22:04.415Z,21.64
2017-12-13T06:22:36.445Z,21.66
2017-12-13T06:23:08.446Z,21.71
2017-12-13T06:23:40.501Z,21.68
2017-12-13T06:24:12.523Z,21.67
2017-12-13T06:24:44.509Z,21.67
2017-12-13T06:25:16.510Z,21.73
2017-12-13T06:25:48.537Z,21.66
2017-12-13T06:26:20.536Z,21.66
2017-12-13T06:26:52.573Z,21.66
2017-12-13T06:27:24.634Z,21.64
2017-12-13T06:27:56.810Z,21.74
2017-12-13T06:28:28.805Z,21.67
2017-12-13T06:29:00.822Z,21.67
2017-12-13T06:29:32.786Z,21.71
2017-12-13T06:30:04.775Z,21.68
2017-12-13T06:30:36.790Z,21.74
2017-12-13T06:31:08.829Z,21.78
2017-12-13T06:31:40.858Z,21.67
2017-12-13T06:32:12.885Z,21.71
2017-12-13T06:32:44.905Z,21.76
2017-12-13T06:33:16.919Z,21.73
2017-12-13T06:33:48.937Z,21.73
2017-12-13T06:34:20.930Z,21.74
2017-12-13T06:34:52.910Z,21.61
2017-12-13T06:35:24.933Z,21.68
2017-12-13T06:35:56.952Z,21.71
2017-12-13T06:36:28.966Z,21.74
2017-12-13T06:37:00.984Z,21.74
2017-12-13T06:37:33.878Z,21.76
2017-12-13T06:38:05.860Z,21.71
2017-12-13T06:38:37.818Z,21.68
2017-12-13T06:39:09.841Z,21.8
2017-12-13T06:39:41.839Z,21.76
2017-12-13T06:40:13.842Z,21.8
2017-12-13T06:40:45.851Z,21.78
2017-12-13T06:41:17.881Z,21.83
2017-12-13T06:41:49.925Z,21.76
2017-12-13T06:42:21.940Z,21.92
2017-12-13T06:42:54.004Z,21.93
2017-12-13T06:43:26.083Z,21.83
2017-12-13T06:43:58.058Z,21.9
2017-12-13T06:44:30.692Z,21.86
2017-12-13T06:45:02.671Z,21.82
2017-12-13T06:45:34.669Z,21.85
2017-12-13T06:46:06.814Z,21.83
2017-12-13T06:46:38.839Z,21.83
2017-12-13T06:47:10.881Z,21.86
2017-12-13T06:47:42.869Z,21.83
2017-12-13T06:48:15.005Z,21.85
2017-12-13T06:48:47.063Z,21.86
2017-12-13T06:49:19.065Z,21.86
2017-12-13T06:49:51.050Z,21.82
2017-12-13T06:50:23.127Z,21.8
2017-12-13T06:50:55.148Z,21.89
2017-12-13T06:51:27.152Z,21.8
2017-12-13T06:51:59.161Z,21.78
2017-12-13T06:52:31.183Z,21.83
2017-12-13T06:53:03.165Z,21.89
2017-12-13T06:53:35.192Z,21.92